Time;durP1;ratioP1;P1;durP2;ratioP2;P2;SDS_P1;SDS_P2;PMS_P1;PMS_P2;Temp;Humidity;BMP_temperature;BMP_pressure;BME280_temperature;BME280_humidity;BME280_pressure;Samples;Min_cycle;Max_cycle;Signal;HPM_P1;HPM_P2
2021/11/02 00:00:34;;;;;;;4.90;3.55;;;7.90;99.90;;;;;;5057149;28;20054;-74
2021/11/02 00:03:01;;;;;;;6.25;3.70;;;7.80;99.90;;;;;;5074776;28;20035;-74
2021/11/02 00:05:27;;;;;;;11.32;3.50;;;7.80;99.90;;;;;;5074106;28;20029;-74
2021/11/02 00:07:53;;;;;;;3.97;3.10;;;7.80;99.90;;;;;;5056685;28;20107;-74
2021/11/02 00:10:19;;;;;;;4.15;3.35;;;7.80;99.90;;;;;;5056698;28;20020;-74
2021/11/02 00:12:45;;;;;;;4.85;2.97;;;7.80;99.90;;;;;;5073842;28;20020;-73
2021/11/02 00:15:11;;;;;;;3.42;2.83;;;7.80;99.90;;;;;;5074405;28;20031;-75
2021/11/02 00:17:39;;;;;;;4.10;2.60;;;7.80;99.90;;;;;;5074463;28;20058;-74
2021/11/02 00:20:07;;;;;;;4.15;2.70;;;7.70;99.90;;;;;;5071614;28;20036;-73
2021/11/02 00:22:35;;;;;;;5.05;2.90;;;7.70;99.90;;;;;;5056311;28;20028;-76
2021/11/02 00:25:05;;;;;;;3.88;2.70;;;7.70;99.90;;;;;;5056284;28;20506;-73
2021/11/02 00:27:36;;;;;;;5.25;2.72;;;7.70;99.90;;;;;;5040704;28;20401;-74
2021/11/02 00:30:03;;;;;;;5.13;2.60;;;7.70;99.90;;;;;;5054084;28;20048;-74
2021/11/02 00:32:29;;;;;;;3.70;2.67;;;7.70;99.90;;;;;;5065891;28;20025;-74
2021/11/02 00:34:54;;;;;;;4.00;3.00;;;7.60;99.90;;;;;;5055695;28;20033;-73
2021/11/02 00:37:20;;;;;;;4.00;2.75;;;7.60;99.90;;;;;;5073770;28;20067;-74
2021/11/02 00:39:46;;;;;;;5.65;2.92;;;7.60;99.90;;;;;;5055939;28;20029;-74
2021/11/02 00:42:12;;;;;;;7.88;3.13;;;7.60;99.90;;;;;;5055287;28;20032;-73
2021/11/02 00:44:38;;;;;;;3.97;3.08;;;7.60;99.90;;;;;;5055951;28;20017;-75
2021/11/02 00:47:05;;;;;;;7.05;3.53;;;7.60;99.90;;;;;;5073230;28;20031;-73
2021/11/02 00:49:31;;;;;;;4.65;3.10;;;7.50;99.90;;;;;;5074217;28;20139;-73
2021/11/02 00:51:57;;;;;;;6.00;3.80;;;7.50;99.90;;;;;;5073677;28;20028;-74
2021/11/02 00:54:22;;;;;;;4.68;3.45;;;7.50;99.90;;;;;;5073506;28;20460;-73
2021/11/02 00:56:48;;;;;;;6.05;4.03;;;7.50;99.90;;;;;;5073717;28;20107;-73
2021/11/02 00:59:14;;;;;;;5.43;3.90;;;7.50;99.90;;;;;;5055454;28;20027;-73
2021/11/02 01:01:39;;;;;;;5.75;4.10;;;7.50;99.90;;;;;;5072986;28;20119;-73
2021/11/02 01:04:06;;;;;;;5.13;3.90;;;7.40;99.90;;;;;;5055496;28;20020;-73
2021/11/02 01:06:33;;;;;;;4.78;3.70;;;7.40;99.90;;;;;;5055965;28;20447;-73
2021/11/02 01:08:59;;;;;;;4.80;3.30;;;7.40;99.90;;;;;;5072497;28;20483;-73
2021/11/02 01:11:25;;;;;;;5.13;3.85;;;7.40;99.90;;;;;;5073718;28;20028;-74
2021/11/02 01:13:51;;;;;;;4.93;3.70;;;7.40;99.90;;;;;;5055500;28;20012;-74
2021/11/02 01:16:19;;;;;;;6.63;3.70;;;7.30;99.90;;;;;;5054582;28;20024;-74
2021/11/02 01:18:45;;;;;;;4.95;3.40;;;7.30;99.90;;;;;;5055276;28;20643;-75
2021/11/02 01:21:10;;;;;;;5.60;3.67;;;7.30;99.90;;;;;;5055193;28;20093;-74
2021/11/02 01:23:36;;;;;;;4.25;3.00;;;7.30;99.90;;;;;;5072637;28;20073;-74
2021/11/02 01:26:02;;;;;;;4.22;3.38;;;7.30;99.90;;;;;;5072930;28;20107;-75
2021/11/02 01:28:28;;;;;;;4.03;3.08;;;7.20;99.90;;;;;;5055324;28;20215;-74
2021/11/02 01:30:54;;;;;;;5.00;3.28;;;7.20;99.90;;;;;;5072879;28;20111;-74
2021/11/02 01:33:19;;;;;;;4.47;3.40;;;7.20;99.90;;;;;;5054957;28;20618;-74
2021/11/02 01:35:45;;;;;;;5.88;3.58;;;7.20;99.90;;;;;;5073102;28;20439;-74
2021/11/02 01:38:11;;;;;;;4.72;3.30;;;7.20;99.90;;;;;;5072239;28;20469;-75
2021/11/02 01:40:37;;;;;;;4.68;3.38;;;7.10;99.90;;;;;;5072884;28;20090;-74
2021/11/02 01:43:03;;;;;;;3.70;3.13;;;7.10;99.90;;;;;;5072699;28;20020;-74
2021/11/02 01:45:29;;;;;;;4.35;3.25;;;7.10;99.90;;;;;;5072296;28;20101;-74
2021/11/02 01:47:56;;;;;;;4.90;3.60;;;7.10;99.90;;;;;;5073042;28;20021;-74
2021/11/02 01:50:22;;;;;;;5.13;3.35;;;7.10;99.90;;;;;;5072260;28;20074;-74
2021/11/02 01:52:48;;;;;;;5.95;3.50;;;7.10;99.90;;;;;;5054726;28;20020;-74
2021/11/02 01:55:15;;;;;;;4.55;3.47;;;7.10;99.90;;;;;;5072487;28;20112;-74
2021/11/02 01:57:42;;;;;;;3.90;3.00;;;7.10;99.90;;;;;;5071875;28;20023;-74
2021/11/02 02:00:12;;;;;;;4.15;3.15;;;7.10;99.90;;;;;;5054128;28;20036;-75
2021/11/02 02:03:21;;;;;;;3.58;2.60;;;7.00;99.90;;;;;;5072754;28;20028;-74
2021/11/02 02:06:01;;;;;;;5.32;3.58;;;7.00;99.90;;;;;;5071727;28;20108;-74
2021/11/02 02:08:40;;;;;;;4.47;3.80;;;7.00;99.90;;;;;;5072727;28;20028;-74
2021/11/02 02:11:19;;;;;;;6.03;3.15;;;7.00;99.90;;;;;;5071925;28;20512;-74
2021/11/02 02:13:58;;;;;;;6.32;3.47;;;7.00;99.90;;;;;;5072029;28;20078;-74
2021/11/02 02:16:40;;;;;;;4.40;3.00;;;7.00;99.90;;;;;;5072703;28;20056;-74
2021/11/02 02:19:37;;;;;;;4.80;3.42;;;6.90;99.90;;;;;;5053569;28;20020;-74
2021/11/02 02:22:27;;;;;;;4.63;3.17;;;7.00;99.90;;;;;;5072161;28;20434;-75
2021/11/02 02:25:33;;;;;;;4.78;3.10;;;6.90;99.90;;;;;;5072193;28;20400;-74
2021/11/02 02:28:13;;;;;;;4.30;2.88;;;6.90;99.90;;;;;;5071920;28;20025;-74
2021/11/02 02:30:49;;;;;;;3.08;2.75;;;6.90;99.90;;;;;;5054784;28;20427;-74
2021/11/02 02:33:17;;;;;;;3.38;2.45;;;6.90;99.90;;;;;;5071384;28;20029;-74
2021/11/02 02:35:45;;;;;;;4.18;3.20;;;6.90;99.90;;;;;;5053732;28;20103;-74
2021/11/02 02:38:12;;;;;;;5.70;2.78;;;6.90;99.90;;;;;;5053919;28;20430;-75
2021/11/02 02:40:40;;;;;;;3.60;2.67;;;6.90;99.90;;;;;;5067314;28;20073;-74
2021/11/02 02:43:06;;;;;;;3.70;2.90;;;6.90;99.90;;;;;;5046833;28;20061;-74
2021/11/02 02:45:34;;;;;;;4.38;2.70;;;6.90;99.90;;;;;;5061881;28;20090;-75
2021/11/02 02:48:02;;;;;;;4.78;3.13;;;6.90;99.90;;;;;;5059406;28;20020;-75
2021/11/02 02:50:28;;;;;;;4.85;3.05;;;6.90;99.90;;;;;;5071892;28;20025;-73
2021/11/02 02:52:56;;;;;;;3.88;2.90;;;6.90;99.90;;;;;;5060857;28;20075;-73
2021/11/02 02:55:22;;;;;;;4.95;3.20;;;6.90;99.90;;;;;;5051416;28;20024;-74
2021/11/02 02:57:49;;;;;;;3.78;3.20;;;6.90;99.90;;;;;;5053119;28;20066;-74
2021/11/02 03:00:15;;;;;;;5.63;3.50;;;6.80;99.90;;;;;;5062746;28;20028;-74
2021/11/02 03:02:44;;;;;;;4.63;3.50;;;6.90;99.90;;;;;;5051171;28;20025;-74
2021/11/02 03:05:12;;;;;;;3.55;2.97;;;6.90;99.90;;;;;;5051600;28;20480;-73
2021/11/02 03:07:38;;;;;;;5.05;3.75;;;6.90;99.90;;;;;;5051433;28;20029;-74
2021/11/02 03:10:06;;;;;;;3.50;3.03;;;6.90;99.90;;;;;;5058372;28;20043;-73
2021/11/02 03:12:35;;;;;;;5.25;3.72;;;6.90;99.90;;;;;;5052866;28;20025;-73
2021/11/02 03:15:22;;;;;;;3.38;2.70;;;6.90;99.90;;;;;;5070849;28;20067;-73
2021/11/02 03:18:13;;;;;;;3.42;3.10;;;6.90;99.90;;;;;;5053661;28;20024;-74
2021/11/02 03:59:58;;;;;;;4.28;2.90;;;6.50;99.90;;;;;;5074787;28;20033;-76
2021/11/02 04:22:30;;;;;;;3.72;2.55;;;6.50;99.90;;;;;;5072602;28;20081;-76
2021/11/02 04:25:30;;;;;;;2.90;2.60;;;6.30;99.90;;;;;;5073652;28;20029;-74
2021/11/02 04:27:56;;;;;;;4.40;3.05;;;6.30;99.90;;;;;;5072815;28;20031;-74
2021/11/02 04:33:37;;;;;;;3.25;2.45;;;6.20;99.90;;;;;;5073464;28;20128;-73
2021/11/02 04:42:36;;;;;;;2.85;2.58;;;6.20;99.90;;;;;;5072850;28;20037;-73
2021/11/02 04:45:17;;;;;;;4.30;3.00;;;6.10;99.90;;;;;;5053696;28;20259;-75
2021/11/02 05:06:54;;;;;;;3.35;3.03;;;6.00;99.90;;;;;;5022677;28;20533;-74
2021/11/02 05:53:17;;;;;;;2.65;2.35;;;6.00;99.90;;;;;;5052748;28;20116;-74
2021/11/02 05:55:58;;;;;;;2.60;2.38;;;6.10;99.90;;;;;;5052536;28;20043;-74
2021/11/02 05:58:30;;;;;;;2.60;2.38;;;6.00;99.90;;;;;;5052197;28;20031;-75
2021/11/02 06:09:02;;;;;;;3.83;2.20;;;6.00;99.90;;;;;;5052451;28;20033;-74
2021/11/02 06:23:40;;;;;;;3.78;3.40;;;5.90;99.90;;;;;;5072578;28;20105;-74
2021/11/02 06:28:52;;;;;;;4.25;3.80;;;5.90;99.90;;;;;;5059828;28;20086;-73
2021/11/02 06:39:27;;;;;;;4.43;3.45;;;5.80;99.90;;;;;;5051587;28;20062;-75
2021/11/02 07:10:54;;;;;;;3.60;2.70;;;5.90;99.90;;;;;;5075462;28;20404;-75
2021/11/02 07:18:06;;;;;;;2.50;2.30;;;6.10;99.90;;;;;;5071162;28;20038;-77
2021/11/02 07:25:49;;;;;;;3.42;2.95;;;6.20;99.90;;;;;;5074591;28;20361;-77
2021/11/02 07:28:52;;;;;;;3.08;2.47;;;6.20;99.90;;;;;;5050083;28;20020;-77
2021/11/02 08:47:28;;;;;;;2.78;2.58;;;8.40;99.90;;;;;;5072329;28;20043;-73
2021/11/02 08:49:54;;;;;;;3.47;2.40;;;8.50;99.90;;;;;;5054102;28;20058;-74
2021/11/02 08:52:21;;;;;;;2.55;2.35;;;8.60;99.90;;;;;;5070344;28;20084;-73
2021/11/02 08:54:50;;;;;;;2.83;2.55;;;8.70;99.90;;;;;;5053987;28;20388;-73
2021/11/02 08:57:18;;;;;;;3.80;2.72;;;8.70;99.90;;;;;;5034692;28;20082;-73
2021/11/02 08:59:45;;;;;;;3.03;2.80;;;8.70;99.90;;;;;;5034300;28;20465;-77
2021/11/02 09:02:12;;;;;;;3.88;2.78;;;8.80;99.90;;;;;;5038144;28;20846;-73
2021/11/02 09:04:47;;;;;;;5.47;2.97;;;8.80;99.90;;;;;;5055632;28;20047;-74
2021/11/02 09:07:20;;;;;;;3.53;2.60;;;8.90;99.90;;;;;;5072621;28;20051;-75
2021/11/02 09:09:48;;;;;;;2.70;2.50;;;9.00;99.90;;;;;;5056096;28;20055;-77
2021/11/02 09:12:15;;;;;;;5.43;2.60;;;9.00;99.90;;;;;;5073419;28;20025;-76
2021/11/02 09:14:43;;;;;;;3.20;2.58;;;9.00;99.90;;;;;;5051295;28;20021;-75
2021/11/02 09:17:09;;;;;;;2.63;2.33;;;9.10;99.90;;;;;;5054313;28;20050;-77
2021/11/02 09:19:36;;;;;;;3.60;2.63;;;9.10;99.90;;;;;;5054396;28;20017;-75
2021/11/02 09:22:04;;;;;;;3.33;2.53;;;9.10;99.90;;;;;;5052033;28;20041;-77
2021/11/02 09:24:30;;;;;;;2.78;2.55;;;9.10;99.90;;;;;;5054201;28;20438;-74
2021/11/02 09:26:58;;;;;;;2.70;2.50;;;9.10;99.90;;;;;;5054843;28;20021;-80
2021/11/02 09:29:25;;;;;;;3.17;2.50;;;9.20;99.90;;;;;;5043965;28;20376;-77
2021/11/02 09:31:58;;;;;;;3.90;2.85;;;9.20;99.90;;;;;;5051715;28;20017;-78
2021/11/02 09:34:24;;;;;;;3.17;2.72;;;9.20;99.90;;;;;;5034951;28;20021;-75
2021/11/02 09:37:17;;;;;;;3.25;2.50;;;9.30;99.90;;;;;;5037477;28;20376;-75
2021/11/02 09:39:49;;;;;;;2.78;2.40;;;9.40;99.90;;;;;;5069974;28;20044;-80
2021/11/02 09:42:43;;;;;;;4.13;2.65;;;9.40;99.90;;;;;;5054163;28;20460;-77
2021/11/02 09:45:41;;;;;;;3.22;2.53;;;9.40;99.90;;;;;;5071035;28;20108;-75
2021/11/02 09:48:38;;;;;;;3.55;2.50;;;9.50;99.90;;;;;;5071116;28;20050;-77
2021/11/02 09:51:27;;;;;;;3.25;2.47;;;9.50;99.90;;;;;;5071486;28;20085;-75
2021/11/02 09:54:20;;;;;;;3.28;2.47;;;9.60;99.90;;;;;;5053634;28;20025;-78
2021/11/02 09:57:19;;;;;;;5.20;2.85;;;9.70;99.90;;;;;;5053076;28;20101;-78
2021/11/02 10:00:10;;;;;;;3.22;2.92;;;9.70;99.90;;;;;;5052289;28;20040;-81
2021/11/02 10:02:44;;;;;;;3.17;2.88;;;9.70;99.90;;;;;;5051061;28;20036;-78
2021/11/02 10:05:30;;;;;;;5.28;3.45;;;9.70;99.90;;;;;;5065328;28;20081;-77
2021/11/02 10:08:37;;;;;;;3.72;3.25;;;9.70;99.90;;;;;;5068601;28;20124;-78
2021/11/02 10:11:35;;;;;;;4.57;3.33;;;9.70;99.90;;;;;;5044387;28;20116;-80
2021/11/02 10:14:14;;;;;;;3.97;2.70;;;9.70;99.90;;;;;;5072472;28;20033;-81
2021/11/02 10:16:51;;;;;;;3.50;3.20;;;9.70;99.90;;;;;;5064896;28;20027;-79
2021/11/02 10:19:29;;;;;;;3.33;3.03;;;9.70;99.90;;;;;;5053870;28;20032;-81
2021/11/02 10:22:13;;;;;;;4.93;3.00;;;9.70;99.90;;;;;;5054620;28;20044;-82
2021/11/02 10:24:45;;;;;;;3.63;3.30;;;9.80;99.90;;;;;;5051734;28;20032;-75
2021/11/02 10:27:10;;;;;;;4.03;3.28;;;9.90;99.90;;;;;;5052723;28;20024;-76
2021/11/02 10:29:52;;;;;;;4.70;3.80;;;10.00;99.90;;;;;;5052578;28;20485;-75
2021/11/02 10:32:19;;;;;;;;;;;10.10;99.90;;;;;;5069443;28;20035;-77
2021/11/02 10:35:19;;;;;;;3.40;3.10;;;10.20;99.90;;;;;;5053765;28;19904;-76
2021/11/02 10:38:09;;;;;;;3.85;3.40;;;10.20;99.90;;;;;;5051407;28;20078;-76
2021/11/02 10:40:48;;;;;;;4.00;3.33;;;10.30;99.90;;;;;;5049124;28;20570;-80
2021/11/02 10:43:48;;;;;;;4.97;3.40;;;10.40;99.90;;;;;;5050368;28;20179;-78
2021/11/02 10:46:15;;;;;;;3.45;3.15;;;10.40;99.90;;;;;;5048874;28;20045;-77
2021/11/02 10:48:48;;;;;;;3.85;3.40;;;10.50;99.90;;;;;;5050590;28;20111;-77
2021/11/02 10:51:44;;;;;;;3.50;3.20;;;10.50;99.90;;;;;;5043626;28;20029;-76
2021/11/02 10:54:50;;;;;;;3.97;3.03;;;10.50;99.90;;;;;;5030517;28;20025;-78
2021/11/02 10:57:31;;;;;;;3.80;2.92;;;10.50;99.90;;;;;;5047646;28;20051;-76
2021/11/02 11:00:02;;;;;;;3.40;2.97;;;10.60;99.90;;;;;;5049404;28;20017;-76
2021/11/02 11:02:29;;;;;;;4.20;3.28;;;10.60;99.90;;;;;;5050507;28;20021;-76
2021/11/02 11:04:56;;;;;;;3.20;3.00;;;10.70;99.90;;;;;;5049528;28;20021;-75
2021/11/02 11:07:22;;;;;;;3.30;2.92;;;10.70;99.90;;;;;;5048700;28;20036;-75
2021/11/02 11:09:52;;;;;;;4.40;3.70;;;10.80;99.90;;;;;;5049525;28;21329;-77
2021/11/02 11:12:19;;;;;;;4.00;3.38;;;10.80;99.90;;;;;;5047162;28;20025;-77
2021/11/02 11:14:46;;;;;;;3.13;2.90;;;10.80;99.90;;;;;;5050015;28;20045;-76
2021/11/02 11:17:16;;;;;;;4.15;3.25;;;10.90;99.90;;;;;;5048925;28;20048;-76
2021/11/02 11:19:51;;;;;;;5.72;3.20;;;10.90;99.90;;;;;;5048377;28;20021;-76
2021/11/02 11:22:25;;;;;;;3.63;3.10;;;11.00;99.90;;;;;;5049610;28;20067;-77
2021/11/02 11:25:04;;;;;;;4.35;3.22;;;11.00;99.90;;;;;;5049596;28;20018;-77
2021/11/02 11:27:34;;;;;;;4.63;3.28;;;11.00;99.90;;;;;;5048954;28;20333;-75
2021/11/02 11:30:06;;;;;;;4.45;3.33;;;11.10;99.90;;;;;;5048978;28;20055;-77
2021/11/02 11:32:36;;;;;;;4.40;3.50;;;11.10;99.90;;;;;;5047518;28;20081;-77
2021/11/02 11:35:02;;;;;;;3.55;2.90;;;11.20;99.90;;;;;;5048004;28;20021;-76
2021/11/02 11:37:35;;;;;;;4.68;2.85;;;11.20;99.90;;;;;;5049919;28;20040;-76
2021/11/02 11:40:05;;;;;;;3.30;3.00;;;11.20;99.90;;;;;;5049161;28;20499;-76
2021/11/02 11:42:31;;;;;;;4.13;3.20;;;11.30;99.90;;;;;;5051354;28;20031;-75
2021/11/02 11:45:09;;;;;;;5.18;3.55;;;11.30;99.90;;;;;;5053369;28;20107;-77
2021/11/02 11:47:35;;;;;;;3.67;3.30;;;11.40;99.90;;;;;;5054464;28;20024;-76
2021/11/02 11:50:18;;;;;;;3.88;3.30;;;11.40;99.90;;;;;;5054877;28;20491;-76
2021/11/02 11:52:47;;;;;;;4.65;3.60;;;11.50;99.90;;;;;;5053699;28;20029;-76
2021/11/02 11:55:19;;;;;;;3.90;3.50;;;11.50;99.90;;;;;;5054240;28;20021;-76
2021/11/02 11:57:45;;;;;;;6.47;3.83;;;11.50;99.90;;;;;;5053638;28;20115;-76
2021/11/02 12:00:12;;;;;;;3.88;3.47;;;11.40;99.90;;;;;;5053547;28;20108;-76
2021/11/02 12:02:57;;;;;;;4.68;3.83;;;11.40;99.90;;;;;;5054004;28;20478;-76
2021/11/02 12:05:24;;;;;;;6.28;3.90;;;11.40;99.90;;;;;;5053722;28;20021;-77
2021/11/02 12:08:15;;;;;;;4.35;3.95;;;11.40;99.90;;;;;;5054078;28;20025;-77
2021/11/02 12:10:42;;;;;;;5.32;4.53;;;11.40;99.90;;;;;;5053278;28;20103;-77
2021/11/02 12:13:10;;;;;;;4.28;3.88;;;11.40;99.90;;;;;;5052988;28;20120;-77
2021/11/02 12:15:48;;;;;;;4.18;3.78;;;11.50;99.90;;;;;;5052954;28;20025;-76
2021/11/02 12:18:18;;;;;;;4.93;3.63;;;11.60;99.90;;;;;;5054267;28;20025;-76
2021/11/02 12:20:45;;;;;;;4.10;3.70;;;11.70;99.90;;;;;;5054592;28;20108;-77
2021/11/02 12:23:19;;;;;;;3.58;3.28;;;11.70;99.90;;;;;;5053767;28;20078;-77
2021/11/02 12:25:54;;;;;;;5.00;3.58;;;11.80;99.90;;;;;;5054387;28;20098;-78
2021/11/02 12:28:34;;;;;;;4.85;3.83;;;11.80;99.90;;;;;;5054000;28;20071;-76
2021/11/02 12:31:05;;;;;;;4.53;3.75;;;11.80;99.90;;;;;;5054080;28;20025;-77
2021/11/02 12:33:32;;;;;;;4.00;3.58;;;11.70;99.90;;;;;;5054198;28;20519;-77
2021/11/02 12:36:02;;;;;;;4.00;3.60;;;11.80;99.90;;;;;;5053257;28;20520;-77
2021/11/02 12:38:39;;;;;;;4.00;3.55;;;11.80;99.90;;;;;;5053958;28;20017;-77
2021/11/02 12:41:22;;;;;;;3.53;3.15;;;11.80;99.90;;;;;;5052550;28;20045;-78
2021/11/02 12:44:06;;;;;;;5.05;3.90;;;11.80;99.90;;;;;;5053680;28;20079;-78
2021/11/02 12:46:33;;;;;;;4.55;3.83;;;11.80;99.90;;;;;;5054410;28;20105;-78
2021/11/02 12:49:02;;;;;;;3.90;3.35;;;11.80;99.90;;;;;;5053670;28;20484;-77
2021/11/02 12:51:29;;;;;;;4.30;3.58;;;11.80;99.90;;;;;;5052263;28;20029;-76
2021/11/02 12:53:58;;;;;;;4.43;3.63;;;11.70;99.90;;;;;;5053549;28;20424;-76
2021/11/02 12:56:27;;;;;;;3.80;3.40;;;11.70;99.90;;;;;;5052699;28;20024;-77
2021/11/02 12:59:04;;;;;;;3.85;3.45;;;11.70;99.90;;;;;;5051825;28;20021;-77
2021/11/02 13:01:36;;;;;;;5.53;3.75;;;11.60;99.90;;;;;;5052419;28;20033;-76
2021/11/02 13:04:09;;;;;;;4.28;3.88;;;11.60;99.90;;;;;;5051510;28;20027;-78
2021/11/02 13:06:50;;;;;;;4.45;3.78;;;11.70;99.90;;;;;;5053783;28;20090;-78
2021/11/02 13:09:23;;;;;;;4.72;3.85;;;11.70;99.90;;;;;;5053555;28;20029;-78
2021/11/02 13:12:04;;;;;;;4.30;3.90;;;11.70;99.90;;;;;;5051515;28;20468;-78
2021/11/02 13:14:40;;;;;;;4.20;3.80;;;11.80;99.90;;;;;;5053679;28;20047;-79
2021/11/02 13:17:08;;;;;;;4.50;4.10;;;11.80;99.90;;;;;;5053294;28;20057;-78
2021/11/02 13:19:48;;;;;;;3.97;3.65;;;11.80;99.90;;;;;;5051651;28;20029;-77
2021/11/02 13:22:17;;;;;;;3.95;3.55;;;11.90;99.90;;;;;;5051973;28;20041;-77
2021/11/02 13:25:02;;;;;;;4.13;3.78;;;11.90;99.90;;;;;;5052673;28;20025;-76
2021/11/02 13:27:42;;;;;;;5.15;3.80;;;11.90;99.90;;;;;;5053118;28;20033;-76
2021/11/02 13:30:35;;;;;;;5.03;4.20;;;11.90;99.90;;;;;;5051808;28;20481;-76
2021/11/02 13:33:09;;;;;;;4.43;4.03;;;11.90;99.90;;;;;;5050745;28;20504;-76
2021/11/02 13:35:44;;;;;;;4.18;3.78;;;12.00;99.90;;;;;;5051910;28;20021;-76
2021/11/02 13:38:26;;;;;;;4.68;3.50;;;12.00;99.90;;;;;;5052921;28;20032;-76
2021/11/02 13:40:54;;;;;;;5.82;4.32;;;12.10;99.90;;;;;;5064771;28;20080;-76
2021/11/02 13:43:35;;;;;;;4.38;3.67;;;12.20;99.90;;;;;;5054895;28;20023;-76
2021/11/02 13:46:03;;;;;;;4.13;3.75;;;12.20;99.90;;;;;;5072028;28;20032;-76
2021/11/02 13:48:32;;;;;;;3.95;3.55;;;12.10;99.90;;;;;;5072741;28;20009;-76
2021/11/02 13:50:58;;;;;;;3.92;3.53;;;12.10;99.90;;;;;;5054759;28;20455;-76
2021/11/02 13:53:25;;;;;;;4.20;3.72;;;12.10;99.90;;;;;;5054402;28;20151;-76
2021/11/02 13:55:51;;;;;;;4.70;3.90;;;12.10;99.90;;;;;;5072666;28;20036;-76
2021/11/02 13:58:17;;;;;;;3.83;3.53;;;12.00;99.90;;;;;;5054490;28;20027;-76
2021/11/02 14:00:45;;;;;;;3.40;3.10;;;12.00;99.90;;;;;;5053852;28;20024;-75
2021/11/02 14:03:41;;;;;;;3.90;3.45;;;11.90;99.90;;;;;;5054534;28;20047;-75
2021/11/02 14:06:10;;;;;;;3.83;3.30;;;11.90;99.90;;;;;;5026155;28;20698;-76
2021/11/02 14:08:36;;;;;;;3.15;2.95;;;11.80;99.90;;;;;;5053726;28;20017;-75
2021/11/02 14:11:02;;;;;;;7.90;3.90;;;11.80;99.90;;;;;;5054280;28;20435;-75
2021/11/02 14:13:41;;;;;;;3.85;3.20;;;11.80;99.90;;;;;;5054509;28;20503;-76
2021/11/02 14:16:07;;;;;;;4.43;3.17;;;11.80;99.90;;;;;;5071585;28;20105;-76
2021/11/02 14:18:39;;;;;;;3.20;2.90;;;11.70;99.90;;;;;;5072284;28;20056;-76
2021/11/02 14:21:05;;;;;;;4.18;3.00;;;11.70;99.90;;;;;;5053532;28;20032;-76
2021/11/02 14:23:31;;;;;;;6.85;3.38;;;11.70;99.90;;;;;;5072307;28;20017;-77
2021/11/02 14:26:35;;;;;;;3.72;3.42;;;11.70;99.90;;;;;;5054331;28;20575;-76
2021/11/02 14:29:07;;;;;;;5.00;3.30;;;11.70;99.90;;;;;;5053745;28;20035;-77
2021/11/02 14:31:38;;;;;;;;;;;11.70;99.90;;;;;;5054691;28;20017;-78
2021/11/02 14:34:28;;;;;;;4.47;3.42;;;11.60;99.90;;;;;;5071962;28;19911;-77
2021/11/02 14:37:15;;;;;;;3.53;3.20;;;11.60;99.90;;;;;;5071286;28;20104;-77
2021/11/02 14:39:59;;;;;;;5.50;3.65;;;11.60;99.90;;;;;;5053843;28;20480;-77
2021/11/02 14:42:52;;;;;;;2.80;2.60;;;11.60;99.90;;;;;;5053706;28;20064;-77
2021/11/02 14:45:38;;;;;;;3.25;2.95;;;11.60;99.90;;;;;;5071930;28;20028;-77
2021/11/02 14:48:37;;;;;;;2.83;2.47;;;11.60;99.90;;;;;;5071883;28;20031;-77
2021/11/02 14:51:12;;;;;;;4.38;2.80;;;11.60;99.90;;;;;;5064332;28;20037;-78
2021/11/02 14:53:43;;;;;;;2.90;2.45;;;11.50;99.90;;;;;;5054158;28;20024;-77
2021/11/02 14:56:11;;;;;;;3.28;2.15;;;11.50;99.90;;;;;;5071542;28;20071;-78
2021/11/02 14:58:40;;;;;;;2.55;1.85;;;11.40;99.90;;;;;;5053987;28;20032;-77
2021/11/02 15:01:05;;;;;;;1.60;1.50;;;11.30;99.90;;;;;;5071602;28;20552;-77
2021/11/02 15:03:33;;;;;;;2.30;1.35;;;11.20;99.90;;;;;;5071600;28;20032;-77
2021/11/02 15:06:08;;;;;;;1.80;1.55;;;11.10;99.90;;;;;;5071653;28;20025;-76
2021/11/02 15:08:36;;;;;;;1.50;1.40;;;11.00;99.90;;;;;;5049023;28;20070;-83
2021/11/02 15:11:09;;;;;;;2.45;1.63;;;10.90;99.90;;;;;;5037290;28;20111;-79
2021/11/02 15:13:37;;;;;;;2.45;1.73;;;10.90;99.90;;;;;;5039760;28;20029;-85
2021/11/02 15:16:03;;;;;;;2.72;1.90;;;10.90;99.90;;;;;;5032787;28;20035;-78
2021/11/02 15:18:50;;;;;;;1.33;1.23;;;10.90;99.90;;;;;;5066333;28;20021;-77
2021/11/02 15:21:22;;;;;;;1.73;1.60;;;10.80;99.90;;;;;;5051077;28;20046;-82
2021/11/02 15:23:49;;;;;;;;;;;10.80;99.90;;;;;;5073145;28;20021;-76
2021/11/02 15:26:16;;;;;;;2.13;1.70;;;10.80;99.90;;;;;;5054136;28;19909;-78
2021/11/02 15:28:44;;;;;;;1.50;1.40;;;10.80;99.90;;;;;;5070346;28;20029;-78
2021/11/02 15:31:11;;;;;;;2.92;2.03;;;10.80;99.90;;;;;;5057306;28;20086;-77
2021/11/02 15:33:42;;;;;;;2.45;2.08;;;10.80;99.90;;;;;;5056000;28;20024;-76
2021/11/02 15:36:22;;;;;;;2.30;2.10;;;10.80;99.90;;;;;;5073739;28;20032;-76
2021/11/02 15:39:03;;;;;;;2.55;2.13;;;10.80;99.90;;;;;;5054190;28;20480;-76
2021/11/02 15:41:30;;;;;;;;;;;10.80;99.90;;;;;;5057349;28;20044;-76
2021/11/02 15:44:05;;;;;;;2.22;2.03;;;10.80;99.90;;;;;;5074012;28;20299;-74
2021/11/02 15:46:38;;;;;;;2.33;2.13;;;10.80;99.90;;;;;;5072017;28;20025;-78
2021/11/02 15:49:13;;;;;;;2.35;2.15;;;10.70;99.90;;;;;;5074140;28;20051;-76
2021/11/02 15:51:41;;;;;;;2.90;2.10;;;10.70;99.90;;;;;;5074697;28;20021;-78
2021/11/02 15:54:09;;;;;;;4.00;2.55;;;10.70;99.90;;;;;;5048137;28;20416;-76
2021/11/02 15:56:35;;;;;;;2.67;2.42;;;10.70;99.90;;;;;;5040623;28;20032;-74
2021/11/02 15:59:03;;;;;;;3.42;2.85;;;10.70;99.90;;;;;;5073938;28;20016;-77
2021/11/02 16:01:43;;;;;;;2.78;2.58;;;10.60;99.90;;;;;;5056205;28;20066;-75
2021/11/02 16:04:17;;;;;;;2.53;2.33;;;10.60;99.90;;;;;;5073495;28;20492;-75
2021/11/02 16:06:53;;;;;;;4.03;2.55;;;10.60;99.90;;;;;;5056289;28;20103;-77
2021/11/02 16:09:18;;;;;;;2.65;2.30;;;10.60;99.90;;;;;;5054985;28;20060;-77
2021/11/02 16:11:44;;;;;;;2.90;2.58;;;10.70;99.90;;;;;;5053798;28;20059;-81
2021/11/02 16:14:10;;;;;;;3.03;2.80;;;10.70;99.90;;;;;;5055329;28;20050;-83
2021/11/02 16:16:36;;;;;;;3.88;3.05;;;10.60;99.90;;;;;;5042798;28;20024;-85
2021/11/02 16:19:03;;;;;;;5.05;4.25;;;10.60;99.90;;;;;;5049148;28;20028;-81
2021/11/02 16:21:32;;;;;;;4.60;4.05;;;10.60;99.90;;;;;;5055500;28;20435;-80
2021/11/02 16:24:06;;;;;;;4.85;4.35;;;10.60;99.90;;;;;;5054360;28;20029;-83
2021/11/02 16:26:32;;;;;;;4.50;4.10;;;10.50;99.90;;;;;;5055686;28;20457;-78
2021/11/02 16:29:18;;;;;;;4.10;3.70;;;10.50;99.90;;;;;;5059755;28;20054;-77
2021/11/02 16:31:46;;;;;;;3.92;3.53;;;10.50;99.90;;;;;;5052851;28;20024;-75
2021/11/02 16:34:24;;;;;;;3.75;3.45;;;10.60;99.90;;;;;;5055459;28;20032;-80
2021/11/02 16:36:53;;;;;;;4.75;4.18;;;10.60;99.90;;;;;;5068014;28;20032;-83
2021/11/02 16:39:20;;;;;;;5.13;4.43;;;10.60;99.90;;;;;;5070125;28;20032;-76
2021/11/02 16:41:57;;;;;;;4.35;3.95;;;10.60;99.90;;;;;;5061575;28;20159;-76
2021/11/02 16:44:34;;;;;;;4.70;4.00;;;10.50;99.90;;;;;;5050374;28;20063;-78
2021/11/02 16:47:10;;;;;;;6.38;4.57;;;10.50;99.90;;;;;;5062479;28;20112;-79
2021/11/02 16:49:37;;;;;;;5.40;4.13;;;10.50;99.90;;;;;;5055924;28;20368;-77
2021/11/02 16:52:35;;;;;;;5.38;3.80;;;10.50;99.90;;;;;;5042990;28;20040;-80
2021/11/02 16:55:12;;;;;;;5.45;4.05;;;10.50;99.90;;;;;;5051817;28;20488;-77
2021/11/02 16:57:39;;;;;;;4.15;3.33;;;10.50;99.90;;;;;;5052196;28;20032;-82
2021/11/02 17:00:14;;;;;;;5.43;3.33;;;10.50;99.90;;;;;;5051660;28;20320;-77
2021/11/02 17:02:41;;;;;;;4.55;2.83;;;10.40;99.90;;;;;;5048800;28;20439;-77
2021/11/02 17:05:14;;;;;;;4.40;3.22;;;10.40;99.90;;;;;;5050843;28;20024;-77
2021/11/02 17:07:48;;;;;;;4.50;3.20;;;10.30;99.90;;;;;;5051641;28;20494;-78
2021/11/02 17:10:39;;;;;;;3.92;3.10;;;10.30;99.90;;;;;;5050288;28;20100;-76
2021/11/02 17:13:08;;;;;;;3.72;2.70;;;10.20;99.90;;;;;;5059150;28;20044;-77
2021/11/02 17:15:59;;;;;;;3.25;2.50;;;10.20;99.90;;;;;;5051799;28;20495;-77
2021/11/02 17:19:07;;;;;;;4.75;2.97;;;10.20;99.90;;;;;;5040013;28;20036;-78
2021/11/02 17:21:36;;;;;;;3.47;3.00;;;10.10;99.90;;;;;;4971315;28;20133;-77
2021/11/02 17:24:05;;;;;;;3.17;2.15;;;10.10;99.90;;;;;;4968531;28;20034;-77
2021/11/02 17:26:32;;;;;;;4.18;2.55;;;10.10;99.90;;;;;;5001225;28;20040;-77
2021/11/02 17:28:59;;;;;;;4.43;2.58;;;10.10;99.90;;;;;;5051775;28;20024;-78
2021/11/02 17:31:36;;;;;;;4.30;2.90;;;10.10;99.90;;;;;;5050999;28;20032;-78
2021/11/02 17:34:03;;;;;;;4.72;2.78;;;10.00;99.90;;;;;;5050860;28;20573;-78
2021/11/02 17:36:29;;;;;;;4.57;2.70;;;10.00;99.90;;;;;;5046234;28;20052;-78
2021/11/02 17:38:56;;;;;;;3.58;2.90;;;9.90;99.90;;;;;;5045503;28;20508;-77
2021/11/02 17:41:23;;;;;;;3.55;2.45;;;9.90;99.90;;;;;;5061181;28;20462;-77
2021/11/02 17:43:52;;;;;;;3.38;3.00;;;9.80;99.90;;;;;;5067129;28;20020;-77
2021/11/02 17:46:18;;;;;;;4.80;3.40;;;9.80;99.90;;;;;;5049893;28;20507;-76
2021/11/02 17:48:44;;;;;;;5.93;3.78;;;9.70;99.90;;;;;;5050589;28;20081;-77
2021/11/02 17:51:10;;;;;;;6.05;3.97;;;9.70;99.90;;;;;;5050916;28;20103;-77
2021/11/02 17:53:37;;;;;;;4.22;3.38;;;9.70;99.90;;;;;;5050915;28;20060;-77
2021/11/02 17:56:07;;;;;;;4.97;3.33;;;9.70;99.90;;;;;;5050942;28;20543;-77
2021/11/02 17:58:34;;;;;;;3.58;2.88;;;9.70;99.90;;;;;;5050286;28;20033;-77
2021/11/02 18:01:02;;;;;;;4.30;3.13;;;9.70;99.90;;;;;;5048952;28;20044;-78